Time;durP1;ratioP1;P1;durP2;ratioP2;P2;SDS_P1;SDS_P2;PMS_P1;PMS_P2;Temp;Humidity;BMP_temperature;BMP_pressure;BME280_temperature;BME280_humidity;BME280_pressure;Samples;Min_cycle;Max_cycle;Signal;HPM_P1;HPM_P2
2024/02/01 00:00:48;;;;;;;3.13;2.90;;;;;;;2.45;88.30;100935.88;5116886;28;20032;-67
2024/02/01 00:03:17;;;;;;;2.43;2.27;;;;;;;2.47;88.12;100929.25;5117076;28;20036;-66
2024/02/01 00:05:46;;;;;;;1.13;1.07;;;;;;;2.44;87.78;100926.59;5116689;28;20075;-67
2024/02/01 00:08:15;;;;;;;8.95;4.13;;;;;;;2.40;88.05;100921.31;5116973;28;20374;-67
2024/02/01 00:10:45;;;;;;;6.00;4.07;;;;;;;2.40;88.05;100914.59;5116612;28;20050;-66
2024/02/01 00:13:14;;;;;;;4.07;3.72;;;;;;;2.37;87.96;100906.91;5116828;27;20545;-66
2024/02/01 00:15:43;;;;;;;5.37;3.63;;;;;;;2.39;87.79;100905.34;5116905;28;20035;-66
2024/02/01 00:18:11;;;;;;;8.07;4.57;;;;;;;2.42;88.66;100902.97;5117040;28;20663;-67
2024/02/01 00:20:40;;;;;;;6.57;3.87;;;;;;;2.42;88.61;100905.50;5116652;28;20071;-67
2024/02/01 00:23:09;;;;;;;4.28;3.97;;;;;;;2.36;87.95;100887.53;5098027;28;20284;-66
2024/02/01 00:25:38;;;;;;;3.87;2.77;;;;;;;2.40;88.85;100891.94;5116677;28;20453;-66
2024/02/01 00:28:08;;;;;;;4.03;3.72;;;;;;;2.43;88.29;100887.06;5116248;28;20108;-67
2024/02/01 00:30:37;;;;;;;6.00;3.55;;;;;;;2.45;88.72;100882.97;5116578;28;20130;-66
2024/02/01 00:33:06;;;;;;;3.27;3.00;;;;;;;2.40;87.77;100876.81;5116529;28;20543;-66
2024/02/01 00:35:35;;;;;;;3.22;2.92;;;;;;;2.44;88.05;100873.69;5116315;28;20492;-67
2024/02/01 00:38:04;;;;;;;3.08;2.05;;;;;;;2.45;88.11;100870.38;5116776;28;20027;-67
2024/02/01 00:40:33;;;;;;;4.93;3.75;;;;;;;2.44;88.95;100881.25;5115119;28;20038;-66
2024/02/01 00:43:02;;;;;;;5.05;3.00;;;;;;;2.45;87.78;100885.47;5116511;28;20040;-66
2024/02/01 00:45:32;;;;;;;2.83;2.63;;;;;;;2.47;88.56;100873.81;5116572;28;20040;-67
2024/02/01 00:48:01;;;;;;;2.17;1.65;;;;;;;2.45;87.93;100875.41;5116346;28;20100;-67
2024/02/01 00:50:30;;;;;;;9.65;4.15;;;;;;;2.46;88.34;100874.63;5115266;28;20130;-67
2024/02/01 00:52:59;;;;;;;6.97;6.27;;;;;;;2.47;88.51;100863.75;5115815;28;20063;-67
2024/02/01 00:55:28;;;;;;;3.00;2.75;;;;;;;2.45;87.71;100870.38;5115730;28;20058;-67
2024/02/01 00:57:56;;;;;;;5.67;5.07;;;;;;;2.39;88.50;100854.97;5114795;28;20045;-66
2024/02/01 01:00:25;;;;;;;2.58;2.38;;;;;;;2.42;88.60;100849.22;5114667;28;20316;-67
2024/02/01 01:02:56;;;;;;;7.85;4.85;;;;;;;2.43;88.26;100846.75;5116194;28;20382;-66
2024/02/01 01:05:24;;;;;;;4.97;4.15;;;;;;;2.39;87.72;100837.31;5114562;28;20138;-67
2024/02/01 01:07:53;;;;;;;7.17;4.53;;;;;;;2.41;87.82;100843.28;5114537;28;20159;-67
2024/02/01 01:10:22;;;;;;;6.90;4.43;;;;;;;2.43;88.79;100828.25;5114585;28;20188;-67
2024/02/01 01:12:51;;;;;;;3.92;3.63;;;;;;;2.41;88.52;100818.09;5114548;28;20507;-66
2024/02/01 01:15:20;;;;;;;3.03;2.73;;;;;;;2.39;88.44;100812.13;5115286;28;20131;-66
2024/02/01 01:17:49;;;;;;;2.33;2.10;;;;;;;2.41;88.13;100813.06;5097351;28;20868;-66
2024/02/01 01:20:19;;;;;;;8.48;3.72;;;;;;;2.39;88.35;100799.53;5115462;28;20043;-67
2024/02/01 01:22:48;;;;;;;6.13;3.80;;;;;;;2.39;88.61;100799.53;5115495;28;20070;-67
2024/02/01 01:25:18;;;;;;;2.67;2.47;;;;;;;2.37;88.15;100796.09;5113936;28;20047;-67
2024/02/01 01:27:46;;;;;;;5.15;4.50;;;;;;;2.35;88.46;100790.06;5115457;28;20054;-67
2024/02/01 01:30:15;;;;;;;4.20;2.45;;;;;;;2.28;88.51;100785.53;5115067;28;20047;-67
2024/02/01 01:32:44;;;;;;;3.60;3.30;;;;;;;2.33;88.32;100809.28;5115022;28;20542;-66
2024/02/01 01:35:25;;;;;;;3.27;3.03;;;;;;;2.34;88.80;100806.00;5115378;28;20390;-66
2024/02/01 01:38:04;;;;;;;4.72;3.63;;;;;;;2.31;88.72;100802.44;5115362;28;20051;-66
2024/02/01 01:40:33;;;;;;;1.58;1.48;;;;;;;2.31;88.25;100799.94;5115063;28;20062;-66
2024/02/01 01:43:03;;;;;;;6.15;5.15;;;;;;;2.28;88.38;100795.59;5114837;28;20051;-66
2024/02/01 01:45:31;;;;;;;5.43;4.13;;;;;;;2.29;88.75;100787.28;5113840;28;20493;-67
2024/02/01 01:48:00;;;;;;;3.60;3.13;;;;;;;2.27;88.07;100788.84;5114670;28;20287;-67
2024/02/01 01:50:31;;;;;;;3.50;2.78;;;;;;;2.18;88.84;100768.25;5114915;28;20039;-66
2024/02/01 01:53:01;;;;;;;5.30;4.22;;;;;;;2.29;88.61;100779.72;5113806;28;20123;-67
2024/02/01 01:55:30;;;;;;;3.33;3.03;;;;;;;2.32;88.72;100782.41;5113273;28;20047;-66
2024/02/01 01:57:59;;;;;;;1.95;1.80;;;;;;;2.31;88.04;100785.69;5115121;28;20423;-66
2024/02/01 02:00:28;;;;;;;4.97;4.50;;;;;;;2.29;88.38;100773.81;5113312;28;20119;-67
2024/02/01 02:02:57;;;;;;;6.10;4.10;;;;;;;2.29;88.80;100781.38;5111674;28;20138;-67
2024/02/01 02:05:28;;;;;;;4.88;4.47;;;;;;;2.28;88.34;100770.41;5115110;28;20059;-67
2024/02/01 02:07:58;;;;;;;3.28;3.03;;;;;;;2.22;88.89;100770.13;5114907;28;20051;-66
2024/02/01 02:10:27;;;;;;;2.58;2.38;;;;;;;2.23;88.48;100774.34;5113657;28;20051;-67
2024/02/01 02:12:56;;;;;;;2.85;2.58;;;;;;;2.24;88.47;100758.47;5114411;28;20043;-67
2024/02/01 02:15:32;;;;;;;3.00;2.80;;;;;;;2.24;89.01;100758.47;5114590;28;20036;-66
2024/02/01 02:18:09;;;;;;;4.30;3.90;;;;;;;2.23;88.63;100751.69;5114808;28;20032;-67
2024/02/01 02:20:44;;;;;;;1.92;1.83;;;;;;;2.21;89.01;100748.25;5114594;28;20405;-67
2024/02/01 02:23:15;;;;;;;10.48;5.53;;;;;;;2.21;88.73;100748.25;5113159;28;20055;-67
2024/02/01 02:25:44;;;;;;;2.72;2.40;;;;;;;2.16;89.10;100734.56;5114353;28;20488;-66
2024/02/01 02:28:17;;;;;;;6.63;4.38;;;;;;;2.16;88.51;100733.72;5114497;28;20062;-67
2024/02/01 02:30:46;;;;;;;5.17;4.07;;;;;;;2.21;88.39;100733.13;5114656;28;20130;-67
2024/02/01 02:33:14;;;;;;;7.03;6.33;;;;;;;2.23;89.00;100725.66;5114742;28;20276;-66
2024/02/01 02:35:44;;;;;;;6.35;5.00;;;;;;;2.15;88.43;100722.78;5114049;28;20046;-66
2024/02/01 02:38:17;;;;;;;3.13;2.85;;;;;;;2.14;88.92;100708.44;5114378;28;20040;-66
2024/02/01 02:40:46;;;;;;;3.70;3.22;;;;;;;2.16;89.36;100724.47;5114317;28;20493;-66
2024/02/01 02:43:15;;;;;;;5.50;4.37;;;;;;;2.12;89.18;100712.53;5114418;28;20043;-67
2024/02/01 02:45:43;;;;;;;5.97;4.43;;;;;;;2.10;89.36;100709.09;5114831;28;20656;-67
2024/02/01 02:48:14;;;;;;;4.93;3.63;;;;;;;2.07;88.74;100718.13;5113967;28;20130;-67
2024/02/01 02:50:43;;;;;;;4.43;4.03;;;;;;;2.08;89.36;100715.72;5113999;28;20051;-66
2024/02/01 02:53:12;;;;;;;6.20;4.93;;;;;;;2.06;89.16;100712.25;5112956;28;20074;-67
2024/02/01 02:55:42;;;;;;;5.40;2.97;;;;;;;2.07;89.37;100713.97;5113814;28;20276;-67
2024/02/01 02:58:11;;;;;;;6.85;4.25;;;;;;;2.05;89.38;100695.41;5113909;28;20047;-66
2024/02/01 03:00:39;;;;;;;2.43;2.27;;;;;;;2.08;89.49;100700.59;5112905;28;20036;-67
2024/02/01 03:03:08;;;;;;;3.95;3.65;;;;;;;2.09;88.54;100702.31;5113864;28;20039;-67
2024/02/01 03:05:37;;;;;;;3.72;3.30;;;;;;;2.14;88.80;100694.97;5114132;28;20035;-66
2024/02/01 03:08:09;;;;;;;6.70;6.00;;;;;;;2.12;88.61;100689.00;5114396;28;20032;-67
2024/02/01 03:10:38;;;;;;;4.35;3.20;;;;;;;2.12;89.28;100682.34;5113784;28;20093;-66
2024/02/01 03:13:10;;;;;;;5.63;4.13;;;;;;;2.08;89.51;100667.88;5112999;28;20040;-66
2024/02/01 03:15:39;;;;;;;14.40;5.40;;;;;;;2.06;89.29;100666.94;5116755;28;20698;-66
2024/02/01 03:18:10;;;;;;;5.70;3.10;;;;;;;2.03;88.59;100662.63;5116859;28;20035;-67
2024/02/01 03:20:43;;;;;;;6.40;3.42;;;;;;;2.01;89.66;100660.81;5118040;28;20073;-67
2024/02/01 03:23:12;;;;;;;7.45;4.47;;;;;;;2.02;89.57;100670.06;5117829;28;20044;-67
2024/02/01 03:25:41;;;;;;;6.28;5.78;;;;;;;2.01;88.85;100669.25;5118020;27;20067;-66
2024/02/01 03:28:13;;;;;;;3.30;2.53;;;;;;;2.00;89.82;100671.66;5117939;28;20545;-66
2024/02/01 03:30:46;;;;;;;4.10;3.80;;;;;;;2.02;89.28;100665.03;5117920;28;20048;-66
2024/02/01 03:33:26;;;;;;;9.55;6.25;;;;;;;2.02;88.69;100660.00;5117714;28;20428;-66
2024/02/01 03:36:08;;;;;;;3.40;3.10;;;;;;;2.03;89.30;100656.72;5117580;28;20043;-66
2024/02/01 03:38:40;;;;;;;4.65;2.38;;;;;;;2.01;89.73;100649.09;5117870;28;20063;-67
2024/02/01 03:41:20;;;;;;;4.75;4.35;;;;;;;2.04;89.27;100650.88;5117697;28;20058;-67
2024/02/01 03:44:01;;;;;;;6.25;4.47;;;;;;;2.03;89.64;100649.16;5117504;28;20451;-67
2024/02/01 03:46:31;;;;;;;12.77;2.83;;;;;;;1.98;89.29;100653.09;5117326;28;20062;-66
2024/02/01 03:48:59;;;;;;;5.32;4.85;;;;;;;1.96;89.18;100665.63;5117157;28;20054;-67
2024/02/01 03:51:34;;;;;;;2.17;2.05;;;;;;;1.89;89.44;100652.66;5117154;28;20081;-66
2024/02/01 03:54:05;;;;;;;6.60;3.92;;;;;;;1.80;89.23;100667.31;5117208;28;20126;-67
2024/02/01 03:56:35;;;;;;;3.88;2.58;;;;;;;1.72;88.90;100668.56;5117027;28;20055;-66
2024/02/01 03:59:08;;;;;;;4.93;3.53;;;;;;;1.59;89.21;100666.22;5117308;28;20048;-67
2024/02/01 04:01:38;;;;;;;7.30;4.00;;;;;;;1.49;89.13;100674.09;5117081;28;20443;-67
2024/02/01 04:04:07;;;;;;;8.00;3.53;;;;;;;1.43;89.02;100678.81;5117256;28;20500;-67
2024/02/01 04:06:36;;;;;;;2.53;2.42;;;;;;;1.42;88.86;100677.94;5117231;28;20074;-68
2024/02/01 04:09:05;;;;;;;3.90;3.00;;;;;;;1.39;88.14;100676.94;5116948;28;20069;-68
2024/02/01 04:11:34;;;;;;;4.18;3.70;;;;;;;1.43;88.17;100693.91;5115917;28;20042;-67
2024/02/01 04:14:05;;;;;;;4.32;3.90;;;;;;;1.45;88.28;100693.19;5117013;28;20090;-66
2024/02/01 04:16:33;;;;;;;3.90;3.60;;;;;;;1.44;88.97;100688.94;5116657;27;20132;-67
2024/02/01 04:19:03;;;;;;;11.67;5.00;;;;;;;1.48;88.22;100685.81;5115766;28;20035;-67
2024/02/01 04:21:35;;;;;;;4.43;4.03;;;;;;;1.53;88.41;100681.00;5116951;28;20292;-67
2024/02/01 04:24:04;;;;;;;6.43;4.97;;;;;;;1.53;88.78;100660.88;5115241;28;20043;-67
2024/02/01 04:26:35;;;;;;;5.18;4.78;;;;;;;1.56;88.77;100682.00;5115786;28;20137;-67
2024/02/01 04:29:06;;;;;;;8.13;3.28;;;;;;;1.58;88.42;100669.53;5116470;28;20064;-67
2024/02/01 04:31:34;;;;;;;9.93;5.78;;;;;;;1.56;88.77;100666.09;5116687;28;20451;-67
2024/02/01 04:34:03;;;;;;;1.03;1.00;;;;;;;1.58;88.86;100660.34;5116649;28;20111;-67
2024/02/01 04:36:33;;;;;;;3.20;3.00;;;;;;;1.61;89.25;100659.63;5115208;28;20055;-67
2024/02/01 04:39:03;;;;;;;5.30;4.90;;;;;;;1.52;88.91;100634.88;5116204;28;20047;-67
2024/02/01 04:41:33;;;;;;;3.10;2.80;;;;;;;1.56;89.41;100661.06;5115971;28;20370;-67
2024/02/01 04:44:02;;;;;;;7.75;6.50;;;;;;;1.60;89.07;100673.00;5116461;28;20035;-66
2024/02/01 04:46:32;;;;;;;10.80;3.90;;;;;;;1.58;89.43;100654.44;5116383;28;20492;-66
2024/02/01 04:49:03;;;;;;;4.90;3.22;;;;;;;1.60;89.57;100647.84;5114537;28;20075;-66
2024/02/01 04:51:32;;;;;;;4.50;4.10;;;;;;;1.65;88.95;100643.91;5114917;28;20047;-67
2024/02/01 04:54:01;;;;;;;3.23;2.97;;;;;;;1.67;88.96;100654.91;5116118;28;20118;-66
2024/02/01 04:56:30;;;;;;;4.65;4.25;;;;;;;1.70;89.48;100645.00;5115827;28;20101;-66
2024/02/01 04:58:59;;;;;;;9.17;5.20;;;;;;;1.70;89.07;100647.50;5116199;28;20073;-67
2024/02/01 05:01:28;;;;;;;4.60;4.13;;;;;;;1.73;89.10;100650.16;5115660;28;20268;-65
2024/02/01 05:04:01;;;;;;;5.63;3.47;;;;;;;1.76;89.04;100640.25;5114915;28;20047;-67
2024/02/01 05:06:30;;;;;;;4.63;4.22;;;;;;;1.71;89.02;100641.69;5115701;28;20051;-67
2024/02/01 05:08:59;;;;;;;3.33;2.78;;;;;;;1.72;89.46;100638.38;5116258;28;20044;-67
2024/02/01 05:11:28;;;;;;;7.75;6.50;;;;;;;1.77;89.27;100642.88;5115646;28;20562;-67
2024/02/01 05:13:57;;;;;;;3.67;3.40;;;;;;;1.79;90.04;100640.41;5115862;28;20044;-67
2024/02/01 05:16:26;;;;;;;5.10;4.70;;;;;;;1.79;89.90;100628.69;5115743;27;20035;-66
2024/02/01 05:19:08;;;;;;;6.00;4.97;;;;;;;1.79;89.83;100635.38;5115911;28;20043;-67
2024/02/01 05:21:37;;;;;;;11.88;5.70;;;;;;;1.77;89.98;100627.78;5114394;28;20047;-67
2024/02/01 05:24:08;;;;;;;3.07;2.77;;;;;;;1.74;89.78;100639.31;5115177;28;20040;-66
2024/02/01 05:26:38;;;;;;;3.53;3.22;;;;;;;1.74;89.26;100621.72;5115688;28;20114;-66
2024/02/01 05:29:09;;;;;;;6.38;5.78;;;;;;;1.78;89.93;100629.47;5116239;28;20058;-67
2024/02/01 05:31:39;;;;;;;4.47;4.07;;;;;;;1.80;89.31;100622.88;5115545;28;20042;-67
2024/02/01 05:34:12;;;;;;;4.07;3.77;;;;;;;1.83;90.31;100622.16;5114199;28;20066;-67
2024/02/01 05:36:41;;;;;;;7.32;6.05;;;;;;;1.83;90.23;100622.16;5114020;28;20284;-66
2024/02/01 05:39:24;;;;;;;16.03;6.07;;;;;;;1.86;89.43;100610.59;5115004;28;20080;-66
2024/02/01 05:41:54;;;;;;;5.28;4.15;;;;;;;1.81;89.86;100618.69;5115241;28;20465;-67
2024/02/01 05:44:24;;;;;;;13.82;6.72;;;;;;;1.84;90.14;100616.34;5115254;28;20062;-67
2024/02/01 05:46:54;;;;;;;9.13;4.95;;;;;;;1.90;90.54;100616.63;5115588;28;20480;-67
2024/02/01 05:49:26;;;;;;;5.68;5.25;;;;;;;1.91;90.57;100605.78;5115243;28;20048;-66
2024/02/01 05:52:00;;;;;;;4.03;3.20;;;;;;;1.89;89.83;100597.31;5114911;28;20055;-66
2024/02/01 05:54:30;;;;;;;2.15;1.95;;;;;;;1.91;90.55;100600.75;5113907;28;20067;-67
2024/02/01 05:56:58;;;;;;;5.95;5.35;;;;;;;1.93;89.89;100591.63;5114905;28;20039;-67
2024/02/01 05:59:27;;;;;;;7.25;6.57;;;;;;;1.92;90.56;100602.50;5114640;28;20134;-66
2024/02/01 06:01:57;;;;;;;6.63;5.27;;;;;;;1.93;90.60;100594.13;5114921;28;20514;-67
2024/02/01 06:04:29;;;;;;;15.98;4.82;;;;;;;1.91;90.75;100600.75;5114965;28;20040;-66
2024/02/01 06:06:58;;;;;;;3.72;3.40;;;;;;;1.93;90.43;100599.16;5115179;28;20063;-67
2024/02/01 06:09:27;;;;;;;3.10;2.90;;;;;;;1.98;89.67;100595.22;5114503;28;20045;-67
2024/02/01 06:11:55;;;;;;;9.20;5.68;;;;;;;1.97;90.50;100580.88;5114752;28;20042;-68
2024/02/01 06:14:24;;;;;;;6.37;4.40;;;;;;;1.97;90.78;100594.34;5113430;28;20093;-66
2024/02/01 06:16:53;;;;;;;5.28;4.88;;;;;;;1.95;90.61;100588.38;5114807;28;20040;-68
2024/02/01 06:19:22;;;;;;;3.13;2.90;;;;;;;1.97;89.83;100601.03;5114992;28;20370;-67
2024/02/01 06:21:52;;;;;;;6.15;5.65;;;;;;;1.97;90.01;100601.03;5114854;28;20128;-67
2024/02/01 06:24:22;;;;;;;5.88;5.32;;;;;;;1.98;89.79;100597.72;5113035;28;20043;-67
2024/02/01 06:26:52;;;;;;;4.47;4.07;;;;;;;1.91;90.70;100589.03;5095767;28;20047;-68
2024/02/01 06:29:21;;;;;;;8.50;4.40;;;;;;;2.00;90.81;100596.16;5114285;28;20039;-66
2024/02/01 06:31:51;;;;;;;6.70;3.15;;;;;;;2.00;90.83;100581.91;5114514;28;20078;-67
2024/02/01 06:34:26;;;;;;;5.60;5.07;;;;;;;2.01;90.42;100577.75;5114743;28;20028;-67
2024/02/01 06:37:00;;;;;;;4.22;3.65;;;;;;;1.95;89.92;100577.44;5114643;28;20142;-67
2024/02/01 06:39:48;;;;;;;3.03;2.83;;;;;;;1.92;90.71;100592.41;5114432;28;20140;-67
2024/02/01 06:42:32;;;;;;;8.85;5.47;;;;;;;1.91;90.41;100578.97;5114289;28;20043;-67
2024/02/01 06:45:24;;;;;;;6.50;5.53;;;;;;;1.94;90.31;100594.19;5114271;28;20142;-66
2024/02/01 06:48:04;;;;;;;5.75;1.92;;;;;;;1.99;90.27;100589.41;5112601;28;20050;-67
2024/02/01 06:50:54;;;;;;;3.20;2.95;;;;;;;1.91;90.25;100581.47;5114018;28;20404;-67
2024/02/01 06:53:33;;;;;;;;;;;;;;;2.04;90.80;100598.00;5114573;28;20100;-67
2024/02/01 06:56:13;;;;;;;3.97;3.60;;;;;;;2.03;90.20;100591.25;5114225;28;19920;-66
2024/02/01 06:58:56;;;;;;;5.43;4.90;;;;;;;1.99;90.30;100579.34;5113866;28;20036;-68
2024/02/01 07:01:39;;;;;;;4.32;3.95;;;;;;;2.06;90.48;100577.97;5114146;28;20074;-67
2024/02/01 07:04:20;;;;;;;5.88;3.92;;;;;;;2.02;89.87;100565.22;5112629;28;20071;-68
2024/02/01 07:07:17;;;;;;;8.77;4.13;;;;;;;2.00;90.68;100570.97;5114122;28;20126;-67
2024/02/01 07:09:57;;;;;;;4.22;3.35;;;;;;;2.03;90.07;100566.09;5114121;28;20113;-67
2024/02/01 07:12:40;;;;;;;8.82;5.53;;;;;;;2.02;90.25;100570.25;5114051;28;20043;-67
2024/02/01 07:17:58;;;;;;;7.22;4.40;;;;;;;2.14;90.69;100564.94;5113890;28;20550;-67
2024/02/01 07:20:35;;;;;;;5.07;4.63;;;;;;;2.15;90.69;100564.16;5113856;28;20154;-67
2024/02/01 07:23:33;;;;;;;5.57;3.78;;;;;;;2.20;90.97;100547.59;5113690;28;20044;-66
2024/02/01 07:26:02;;;;;;;6.35;5.75;;;;;;;2.29;90.16;100560.63;5112885;28;20552;-66
2024/02/01 07:57:55;;;;;;;14.20;7.03;;;;;;;2.72;89.39;100551.69;5113474;28;20064;-67
2024/02/01 08:03:11;;;;;;;7.82;3.63;;;;;;;2.77;89.18;100545.97;5116306;28;20052;-67
2024/02/01 08:08:19;;;;;;;8.05;5.70;;;;;;;2.75;89.96;100557.66;5096734;28;20044;-66
2024/02/01 08:10:56;;;;;;;4.90;4.07;;;;;;;2.78;89.02;100548.56;5096692;28;20040;-67
2024/02/01 08:13:27;;;;;;;5.38;4.93;;;;;;;2.80;88.92;100562.09;5096601;28;20051;-67
2024/02/01 08:16:09;;;;;;;3.95;3.63;;;;;;;2.82;89.57;100549.56;5096383;28;20404;-66
2024/02/01 08:18:38;;;;;;;9.18;6.53;;;;;;;2.80;88.49;100556.19;5096791;28;20081;-66
2024/02/01 08:21:14;;;;;;;6.40;5.80;;;;;;;2.82;89.03;100554.59;5096331;28;20044;-66
2024/02/01 08:23:44;;;;;;;5.25;4.80;;;;;;;2.87;89.30;100553.16;5095943;28;20316;-67
2024/02/01 08:26:16;;;;;;;2.67;2.47;;;;;;;2.87;89.04;100548.09;5096009;28;20040;-66
2024/02/01 08:28:46;;;;;;;6.00;4.75;;;;;;;2.87;88.65;100545.59;5095486;28;20070;-68
2024/02/01 08:31:17;;;;;;;9.02;5.93;;;;;;;2.92;88.83;100541.59;5096584;28;20052;-66
2024/02/01 08:33:46;;;;;;;4.93;3.60;;;;;;;2.92;87.91;100531.53;5096300;28;20044;-66
2024/02/01 08:36:20;;;;;;;6.03;5.32;;;;;;;2.99;88.46;100533.50;5096239;28;20147;-65
2024/02/01 08:38:49;;;;;;;8.82;5.43;;;;;;;3.02;88.46;100531.13;5094578;28;20036;-65
2024/02/01 08:41:18;;;;;;;8.07;5.47;;;;;;;2.98;87.45;100521.69;5095675;28;20398;-68
2024/02/01 08:43:49;;;;;;;5.03;4.63;;;;;;;2.98;87.51;100531.78;5096130;28;20059;-67
2024/02/01 08:46:22;;;;;;;4.70;4.30;;;;;;;3.03;87.65;100530.31;5094490;28;20379;-66
2024/02/01 08:48:51;;;;;;;6.15;4.18;;;;;;;3.03;88.13;100525.25;5095669;28;20051;-67
2024/02/01 08:51:20;;;;;;;6.88;4.70;;;;;;;3.03;87.63;100541.25;5095913;28;20036;-66
2024/02/01 08:53:52;;;;;;;3.65;3.35;;;;;;;3.03;86.74;100540.41;5095868;28;20032;-67
2024/02/01 08:56:36;;;;;;;4.28;3.05;;;;;;;3.03;87.52;100545.44;5095609;28;20051;-67
2024/02/01 08:59:07;;;;;;;3.85;3.63;;;;;;;3.06;86.65;100525.41;5094457;28;20044;-67
2024/02/01 09:01:36;;;;;;;3.60;3.30;;;;;;;3.08;86.97;100523.81;5095599;28;20512;-67
2024/02/01 09:04:13;;;;;;;2.58;2.35;;;;;;;3.12;87.20;100535.78;5095735;28;20047;-67
2024/02/01 09:06:53;;;;;;;;;;;;;;;3.17;86.39;100529.22;5094854;28;20067;-67
2024/02/01 09:09:30;;;;;;;4.18;3.88;;;;;;;3.17;86.99;100514.09;5094032;28;20259;-67
2024/02/01 09:11:59;;;;;;;7.45;4.53;;;;;;;3.23;86.32;100509.31;5095168;28;20138;-67
2024/02/01 09:14:30;;;;;;;3.65;3.42;;;;;;;3.26;86.21;100514.50;5095192;28;20118;-67
2024/02/01 09:17:03;;;;;;;3.22;2.97;;;;;;;3.28;86.45;100512.91;5095187;28;20131;-67
2024/02/01 09:19:32;;;;;;;7.82;6.05;;;;;;;3.27;86.54;100513.69;5093869;28;20044;-67
2024/02/01 09:22:03;;;;;;;9.02;4.78;;;;;;;3.22;86.41;100512.63;5095289;28;20032;-67
2024/02/01 09:24:31;;;;;;;5.32;4.65;;;;;;;3.13;86.28;100509.75;5095007;28;20048;-66
2024/02/01 09:27:00;;;;;;;6.00;5.40;;;;;;;3.14;86.05;100519.03;5094922;28;20044;-66
2024/02/01 09:29:34;;;;;;;8.27;6.60;;;;;;;3.11;85.62;100536.56;5095227;28;20036;-67
2024/02/01 09:32:04;;;;;;;15.43;5.65;;;;;;;3.11;86.45;100536.56;5094979;28;20512;-67
2024/02/01 09:34:33;;;;;;;5.03;4.63;;;;;;;3.09;86.37;100530.59;5095136;28;20044;-67
2024/02/01 09:37:02;;;;;;;5.20;4.00;;;;;;;3.09;86.09;100530.59;5095085;28;20131;-67
2024/02/01 09:39:34;;;;;;;7.50;6.57;;;;;;;3.10;86.08;100532.28;5095005;28;20067;-67
2024/02/01 09:42:14;;;;;;;7.68;6.32;;;;;;;3.11;86.04;100523.94;5095058;28;20052;-67
2024/02/01 09:44:45;;;;;;;5.68;4.32;;;;;;;3.17;85.87;100519.16;5094579;28;20071;-67
2024/02/01 09:47:14;;;;;;;5.15;4.63;;;;;;;3.22;85.79;100518.53;5094566;28;20044;-66
2024/02/01 09:49:44;;;;;;;4.82;4.22;;;;;;;3.25;85.60;100516.16;5094860;28;20042;-67
2024/02/01 09:52:13;;;;;;;2.38;2.20;;;;;;;3.24;86.02;100511.91;5094614;28;20101;-67
2024/02/01 09:54:46;;;;;;;8.52;5.05;;;;;;;3.25;86.22;100507.72;5094584;28;20036;-66
2024/02/01 09:57:17;;;;;;;7.93;5.78;;;;;;;3.18;85.52;100515.84;5094744;28;20544;-65
2024/02/01 09:59:47;;;;;;;10.85;4.53;;;;;;;3.15;86.31;100501.44;5094517;28;20093;-66
2024/02/01 10:02:16;;;;;;;4.07;3.60;;;;;;;3.17;85.73;100494.78;5094482;28;20040;-68
2024/02/01 10:04:45;;;;;;;7.68;4.50;;;;;;;3.17;86.02;100498.97;5094429;28;20033;-66
2024/02/01 10:07:14;;;;;;;16.60;7.73;;;;;;;3.21;86.33;100490.75;5094199;28;20048;-66
2024/02/01 10:09:51;;;;;;;2.43;2.23;;;;;;;3.22;85.28;100484.88;5094437;28;20134;-67
2024/02/01 10:12:25;;;;;;;7.20;6.50;;;;;;;3.23;85.10;100484.09;5104200;28;20039;-65
2024/02/01 10:14:55;;;;;;;7.10;5.97;;;;;;;3.24;85.82;100475.72;5114746;28;20534;-66
2024/02/01 10:17:25;;;;;;;3.25;3.00;;;;;;;3.27;85.66;100475.84;5115034;28;20043;-67
2024/02/01 10:19:54;;;;;;;4.30;3.97;;;;;;;3.27;85.52;100476.72;5114289;28;20067;-69
2024/02/01 10:22:32;;;;;;;3.90;3.60;;;;;;;3.29;85.42;100475.13;5114221;28;20043;-68
2024/02/01 10:25:12;;;;;;;5.33;4.83;;;;;;;3.29;85.33;100469.22;5114506;28;20120;-68
2024/02/01 10:27:56;;;;;;;6.13;3.38;;;;;;;3.30;85.72;100471.81;5114438;28;20044;-67
2024/02/01 10:30:26;;;;;;;5.32;4.82;;;;;;;3.33;86.18;100460.97;5112549;28;20043;-67
2024/02/01 10:33:01;;;;;;;6.20;3.10;;;;;;;3.33;86.03;100460.97;5114147;28;20493;-66
2024/02/01 10:35:32;;;;;;;8.35;6.20;;;;;;;3.34;85.59;100465.22;5114464;28;20051;-66
2024/02/01 10:38:11;;;;;;;4.38;3.60;;;;;;;3.34;85.80;100457.66;5114127;28;20047;-66
2024/02/01 10:40:49;;;;;;;7.68;5.45;;;;;;;3.34;85.60;100457.66;5112790;28;20552;-67
2024/02/01 10:43:21;;;;;;;4.28;2.97;;;;;;;3.35;86.00;100457.72;5095977;28;20048;-67
2024/02/01 10:46:05;;;;;;;7.65;3.95;;;;;;;3.36;85.71;100454.38;5115143;28;20411;-66
2024/02/01 10:48:47;;;;;;;4.00;3.70;;;;;;;3.33;86.35;100458.47;5114443;28;20441;-67
2024/02/01 10:51:18;;;;;;;15.27;5.65;;;;;;;3.30;85.96;100456.69;5114634;28;20060;-66
2024/02/01 10:53:48;;;;;;;7.90;5.65;;;;;;;3.30;86.47;100455.81;5114278;28;20048;-67
2024/02/01 10:56:19;;;;;;;5.80;4.50;;;;;;;3.28;86.74;100462.47;5113992;28;20052;-69
2024/02/01 10:58:51;;;;;;;4.70;4.30;;;;;;;3.30;86.35;100450.75;5114685;28;20036;-68
2024/02/01 11:01:24;;;;;;;8.02;5.70;;;;;;;3.32;86.29;100444.97;5114263;28;20048;-68
2024/02/01 11:03:56;;;;;;;7.35;6.63;;;;;;;3.32;86.34;100444.13;5114464;28;20108;-68
2024/02/01 11:06:26;;;;;;;24.17;5.88;;;;;;;3.38;86.54;100449.41;5113848;28;20541;-67
2024/02/01 11:08:59;;;;;;;3.50;2.67;;;;;;;3.44;87.25;100444.59;5113775;28;20055;-68
2024/02/01 11:11:31;;;;;;;3.13;2.88;;;;;;;3.45;86.92;100430.34;5112299;28;20040;-68
2024/02/01 11:14:11;;;;;;;6.97;6.07;;;;;;;3.52;86.91;100443.25;5110615;28;20486;-69
2024/02/01 11:16:46;;;;;;;3.70;3.45;;;;;;;3.56;87.42;100439.19;5107579;28;20093;-68
2024/02/01 11:19:15;;;;;;;6.30;5.72;;;;;;;3.55;86.96;100427.38;5114066;28;20040;-68
2024/02/01 11:21:57;;;;;;;3.15;2.88;;;;;;;3.57;87.25;100436.72;5114515;28;20040;-68
2024/02/01 11:24:28;;;;;;;5.38;4.88;;;;;;;3.65;87.64;100437.00;5112452;28;20052;-68
2024/02/01 11:26:58;;;;;;;5.97;5.38;;;;;;;3.66;87.53;100437.09;5114033;28;20040;-67
2024/02/01 11:29:29;;;;;;;7.82;6.13;;;;;;;3.65;87.88;100435.34;5114308;28;20043;-67
2024/02/01 11:32:03;;;;;;;4.72;4.32;;;;;;;3.68;87.68;100438.00;5113931;28;20051;-67
2024/02/01 11:34:32;;;;;;;5.43;3.90;;;;;;;3.68;87.52;100435.47;5114443;28;20044;-68
2024/02/01 11:37:02;;;;;;;7.53;5.28;;;;;;;3.70;87.70;100433.88;5117625;28;20071;-68
2024/02/01 11:39:31;;;;;;;3.55;3.25;;;;;;;3.72;87.65;100429.72;5117788;28;20443;-68
2024/02/01 11:41:59;;;;;;;5.18;4.55;;;;;;;3.72;87.56;100428.91;5117303;28;20485;-68
2024/02/01 11:44:29;;;;;;;5.70;4.13;;;;;;;3.69;87.88;100431.28;5117383;28;20044;-68
2024/02/01 11:46:59;;;;;;;6.88;6.10;;;;;;;3.67;88.05;100427.84;5116229;28;20050;-68
2024/02/01 11:49:30;;;;;;;4.88;4.05;;;;;;;3.68;87.80;100425.38;5116211;28;20134;-67
2024/02/01 11:52:15;;;;;;;8.38;7.53;;;;;;;3.66;88.20;100426.13;5117411;28;20051;-67
2024/02/01 11:54:47;;;;;;;9.85;5.35;;;;;;;3.67;88.32;100423.63;5116906;28;20046;-68
2024/02/01 11:57:17;;;;;;;7.88;3.65;;;;;;;3.67;88.45;100418.59;5117450;27;20143;-67
2024/02/01 11:59:47;;;;;;;6.85;5.80;;;;;;;3.69;88.94;100417.00;5117001;28;20036;-67
2024/02/01 12:02:19;;;;;;;4.90;3.67;;;;;;;3.74;89.29;100415.50;5117234;28;20548;-67
2024/02/01 12:04:49;;;;;;;5.05;4.15;;;;;;;3.81;89.05;100414.97;5117319;28;20532;-67
2024/02/01 12:07:20;;;;;;;5.00;3.47;;;;;;;3.83;89.23;100409.97;5117256;28;20104;-67
2024/02/01 12:09:50;;;;;;;6.95;4.63;;;;;;;3.70;89.69;100383.38;5117216;28;20489;-67
2024/02/01 12:12:23;;;;;;;5.93;5.43;;;;;;;3.88;89.08;100409.34;5116902;28;20042;-68
2024/02/01 12:14:54;;;;;;;2.97;2.78;;;;;;;3.91;89.95;100411.94;5115842;28;20205;-67
2024/02/01 12:17:25;;;;;;;7.70;6.47;;;;;;;3.96;89.59;100418.03;5117279;28;20554;-67
2024/02/01 12:19:55;;;;;;;6.68;5.82;;;;;;;4.03;90.01;100409.88;5117001;28;20067;-66
2024/02/01 12:22:28;;;;;;;6.13;5.03;;;;;;;4.08;90.38;100403.34;5116333;28;20051;-66
2024/02/01 12:24:59;;;;;;;6.47;5.72;;;;;;;4.10;90.53;100400.88;5116590;27;20047;-67
2024/02/01 12:27:28;;;;;;;4.47;2.53;;;;;;;4.15;90.47;100393.47;5116842;28;20067;-67
2024/02/01 12:29:57;;;;;;;4.78;4.35;;;;;;;4.18;90.50;100383.44;5116405;28;20044;-67
2024/02/01 12:32:43;;;;;;;7.45;5.75;;;;;;;4.22;90.32;100390.34;5115548;28;20051;-67